sensor_id;sensor_type;location;lat;lon;timestamp;pressure;altitude;pressure_sealevel;temperature;humidity
64388;BME280;50709;52.648;4.764;2023-02-16T00:01:28;102319.06;;;12.28;61.15
64388;BME280;50709;52.648;4.764;2023-02-16T00:03:55;102313.41;;;12.06;59.85
64388;BME280;50709;52.648;4.764;2023-02-16T00:06:21;102310.94;;;12.13;60.54
64388;BME280;50709;52.648;4.764;2023-02-16T00:08:49;102307.34;;;12.09;60.02
64388;BME280;50709;52.648;4.764;2023-02-16T00:11:23;102322.06;;;12.02;60.63
64388;BME280;50709;52.648;4.764;2023-02-16T00:14:10;102296.84;;;12.06;61.00
64388;BME280;50709;52.648;4.764;2023-02-16T00:16:36;102279.03;;;11.89;61.80
64388;BME280;50709;52.648;4.764;2023-02-16T00:19:14;102293.44;;;12.11;60.76
64388;BME280;50709;52.648;4.764;2023-02-16T00:21:40;102289.00;;;12.07;61.34
64388;BME280;50709;52.648;4.764;2023-02-16T00:24:05;102317.16;;;12.19;61.10
64388;BME280;50709;52.648;4.764;2023-02-16T00:26:32;102305.13;;;12.29;60.75
64388;BME280;50709;52.648;4.764;2023-02-16T00:28:58;102296.03;;;12.10;61.12
64388;BME280;50709;52.648;4.764;2023-02-16T00:31:26;102286.03;;;11.90;61.96
64388;BME280;50709;52.648;4.764;2023-02-16T00:33:53;102301.22;;;11.66;61.77
64388;BME280;50709;52.648;4.764;2023-02-16T00:36:20;102291.81;;;11.75;62.08
64388;BME280;50709;52.648;4.764;2023-02-16T00:38:45;102284.31;;;11.50;61.78
64388;BME280;50709;52.648;4.764;2023-02-16T00:41:19;102296.38;;;11.84;62.19
64388;BME280;50709;52.648;4.764;2023-02-16T00:44:07;102295.53;;;11.85;62.47
64388;BME280;50709;52.648;4.764;2023-02-16T00:46:37;102293.13;;;11.94;62.35
64388;BME280;50709;52.648;4.764;2023-02-16T00:49:02;102289.28;;;11.78;62.25
64388;BME280;50709;52.648;4.764;2023-02-16T00:51:28;102281.50;;;11.83;62.06
64388;BME280;50709;52.648;4.764;2023-02-16T00:53:53;102286.19;;;11.97;62.22
64388;BME280;50709;52.648;4.764;2023-02-16T00:56:19;102285.75;;;11.76;61.54
64388;BME280;50709;52.648;4.764;2023-02-16T00:58:47;102277.47;;;11.98;61.62
64388;BME280;50709;52.648;4.764;2023-02-16T01:01:14;102272.22;;;11.96;62.33
64388;BME280;50709;52.648;4.764;2023-02-16T01:03:42;102272.81;;;11.84;61.20
64388;BME280;50709;52.648;4.764;2023-02-16T01:06:09;102272.28;;;12.01;60.86
64388;BME280;50709;52.648;4.764;2023-02-16T01:08:54;102295.56;;;11.87;61.84
64388;BME280;50709;52.648;4.764;2023-02-16T01:11:43;102289.81;;;12.05;61.68
64388;BME280;50709;52.648;4.764;2023-02-16T01:14:11;102270.97;;;11.78;62.08
64388;BME280;50709;52.648;4.764;2023-02-16T01:16:39;102293.28;;;12.04;62.40
64388;BME280;50709;52.648;4.764;2023-02-16T01:19:05;102300.34;;;11.65;60.83
64388;BME280;50709;52.648;4.764;2023-02-16T01:21:31;102273.16;;;11.57;62.69
64388;BME280;50709;52.648;4.764;2023-02-16T01:23:56;102286.22;;;11.57;61.82
64388;BME280;50709;52.648;4.764;2023-02-16T01:26:22;102281.13;;;11.65;62.08
64388;BME280;50709;52.648;4.764;2023-02-16T01:28:48;102288.13;;;11.66;61.10
64388;BME280;50709;52.648;4.764;2023-02-16T01:31:14;102288.25;;;12.15;62.13
64388;BME280;50709;52.648;4.764;2023-02-16T01:33:41;102266.34;;;12.09;61.38
64388;BME280;50709;52.648;4.764;2023-02-16T01:36:34;102286.28;;;12.01;62.14
64388;BME280;50709;52.648;4.764;2023-02-16T01:39:01;102250.91;;;11.81;62.94
64388;BME280;50709;52.648;4.764;2023-02-16T01:41:49;102286.59;;;12.18;61.92
64388;BME280;50709;52.648;4.764;2023-02-16T01:44:32;102272.72;;;12.24;61.89
64388;BME280;50709;52.648;4.764;2023-02-16T01:49:45;102260.16;;;12.04;61.50
64388;BME280;50709;52.648;4.764;2023-02-16T01:54:48;102224.97;;;11.93;61.74
64388;BME280;50709;52.648;4.764;2023-02-16T02:02:21;102251.63;;;12.16;62.40
64388;BME280;50709;52.648;4.764;2023-02-16T02:04:54;102226.31;;;12.17;62.52
64388;BME280;50709;52.648;4.764;2023-02-16T02:08:00;102210.56;;;12.14;61.32
64388;BME280;50709;52.648;4.764;2023-02-16T02:13:13;102247.47;;;12.27;61.47
64388;BME280;50709;52.648;4.764;2023-02-16T02:15:41;102215.69;;;12.09;61.60
64388;BME280;50709;52.648;4.764;2023-02-16T02:18:06;102242.72;;;12.06;61.51
64388;BME280;50709;52.648;4.764;2023-02-16T02:36:50;102223.72;;;12.18;61.99
64388;BME280;50709;52.648;4.764;2023-02-16T02:39:37;102218.25;;;12.04;62.61
64388;BME280;50709;52.648;4.764;2023-02-16T02:42:20;102241.19;;;12.18;63.13
64388;BME280;50709;52.648;4.764;2023-02-16T02:44:53;102224.44;;;12.08;62.67
64388;BME280;50709;52.648;4.764;2023-02-16T02:47:20;102223.47;;;12.03;62.70
64388;BME280;50709;52.648;4.764;2023-02-16T02:49:53;102224.25;;;11.99;62.78
64388;BME280;50709;52.648;4.764;2023-02-16T02:52:20;102214.88;;;12.11;63.17
64388;BME280;50709;52.648;4.764;2023-02-16T02:54:47;102207.63;;;11.97;63.41
64388;BME280;50709;52.648;4.764;2023-02-16T02:57:36;102219.44;;;12.22;63.30
64388;BME280;50709;52.648;4.764;2023-02-16T03:00:31;102219.94;;;12.02;63.20
64388;BME280;50709;52.648;4.764;2023-02-16T03:03:33;102220.25;;;12.19;62.61
64388;BME280;50709;52.648;4.764;2023-02-16T03:06:03;102185.59;;;11.85;63.17
64388;BME280;50709;52.648;4.764;2023-02-16T03:08:32;102219.97;;;12.04;63.03
64388;BME280;50709;52.648;4.764;2023-02-16T03:11:14;102215.53;;;12.00;64.04
64388;BME280;50709;52.648;4.764;2023-02-16T03:14:06;102200.09;;;12.14;63.73
64388;BME280;50709;52.648;4.764;2023-02-16T03:16:57;102218.78;;;11.88;62.41
64388;BME280;50709;52.648;4.764;2023-02-16T03:19:41;102206.16;;;12.13;64.07
64388;BME280;50709;52.648;4.764;2023-02-16T03:22:26;102205.13;;;12.01;63.36
64388;BME280;50709;52.648;4.764;2023-02-16T03:25:11;102197.47;;;12.14;63.52
64388;BME280;50709;52.648;4.764;2023-02-16T03:27:55;102207.06;;;12.15;63.31
64388;BME280;50709;52.648;4.764;2023-02-16T03:30:42;102204.16;;;11.98;63.46
64388;BME280;50709;52.648;4.764;2023-02-16T03:33:09;102205.13;;;12.03;62.67
64388;BME280;50709;52.648;4.764;2023-02-16T03:35:35;102190.81;;;11.84;64.17
64388;BME280;50709;52.648;4.764;2023-02-16T03:38:01;102198.16;;;12.03;64.10
64388;BME280;50709;52.648;4.764;2023-02-16T03:40:27;102207.31;;;12.27;63.78
64388;BME280;50709;52.648;4.764;2023-02-16T03:43:05;102207.47;;;12.36;63.09
64388;BME280;50709;52.648;4.764;2023-02-16T03:45:37;102201.09;;;12.22;63.30
64388;BME280;50709;52.648;4.764;2023-02-16T03:48:04;102189.44;;;12.04;63.24
64388;BME280;50709;52.648;4.764;2023-02-16T03:50:30;102193.00;;;12.08;64.23
64388;BME280;50709;52.648;4.764;2023-02-16T03:52:56;102184.25;;;12.07;63.36
64388;BME280;50709;52.648;4.764;2023-02-16T03:55:44;102190.25;;;12.00;64.08
64388;BME280;50709;52.648;4.764;2023-02-16T03:58:13;102201.13;;;12.25;63.94
64388;BME280;50709;52.648;4.764;2023-02-16T04:00:40;102212.41;;;12.19;62.84
64388;BME280;50709;52.648;4.764;2023-02-16T04:03:06;102191.03;;;11.94;64.98
64388;BME280;50709;52.648;4.764;2023-02-16T04:05:33;102201.97;;;11.75;63.65
64388;BME280;50709;52.648;4.764;2023-02-16T04:07:58;102209.22;;;11.90;64.35
64388;BME280;50709;52.648;4.764;2023-02-16T04:10:24;102202.69;;;12.12;63.68
64388;BME280;50709;52.648;4.764;2023-02-16T04:12:49;102200.81;;;12.06;64.29
64388;BME280;50709;52.648;4.764;2023-02-16T04:15:21;102196.19;;;11.93;64.34
64388;BME280;50709;52.648;4.764;2023-02-16T04:17:47;102193.84;;;12.07;63.83
64388;BME280;50709;52.648;4.764;2023-02-16T04:20:15;102203.28;;;11.97;64.08
64388;BME280;50709;52.648;4.764;2023-02-16T04:22:42;102219.44;;;12.23;63.86
64388;BME280;50709;52.648;4.764;2023-02-16T04:25:08;102207.28;;;12.25;63.78
64388;BME280;50709;52.648;4.764;2023-02-16T04:27:34;102175.44;;;12.02;64.07
64388;BME280;50709;52.648;4.764;2023-02-16T04:30:00;102211.63;;;12.26;63.42
64388;BME280;50709;52.648;4.764;2023-02-16T04:32:25;102206.53;;;12.34;63.57
64388;BME280;50709;52.648;4.764;2023-02-16T04:34:51;102206.41;;;12.28;64.15
64388;BME280;50709;52.648;4.764;2023-02-16T04:37:16;102206.13;;;12.09;64.06
64388;BME280;50709;52.648;4.764;2023-02-16T04:39:41;102213.97;;;12.08;64.58
64388;BME280;50709;52.648;4.764;2023-02-16T04:42:07;102198.91;;;11.96;64.58
64388;BME280;50709;52.648;4.764;2023-02-16T04:44:32;102196.19;;;11.93;63.82
64388;BME280;50709;52.648;4.764;2023-02-16T04:46:58;102190.28;;;12.02;65.25
64388;BME280;50709;52.648;4.764;2023-02-16T04:49:23;102197.78;;;11.86;65.36
64388;BME280;50709;52.648;4.764;2023-02-16T04:51:48;102182.44;;;12.03;64.35
64388;BME280;50709;52.648;4.764;2023-02-16T04:54:14;102182.69;;;11.71;65.38
64388;BME280;50709;52.648;4.764;2023-02-16T04:56:43;102198.94;;;11.99;64.96
64388;BME280;50709;52.648;4.764;2023-02-16T04:59:08;102194.66;;;12.03;64.61
64388;BME280;50709;52.648;4.764;2023-02-16T05:01:34;102189.41;;;12.01;64.59
64388;BME280;50709;52.648;4.764;2023-02-16T05:03:59;102181.34;;;11.92;64.19
64388;BME280;50709;52.648;4.764;2023-02-16T05:06:24;102173.56;;;11.95;65.09
64388;BME280;50709;52.648;4.764;2023-02-16T05:08:50;102192.09;;;12.06;65.31
64388;BME280;50709;52.648;4.764;2023-02-16T05:11:15;102185.38;;;11.74;65.75
64388;BME280;50709;52.648;4.764;2023-02-16T05:14:23;102184.19;;;12.03;65.19
64388;BME280;50709;52.648;4.764;2023-02-16T05:17:27;102196.47;;;12.05;65.46
64388;BME280;50709;52.648;4.764;2023-02-16T05:19:54;102178.84;;;11.98;65.16
64388;BME280;50709;52.648;4.764;2023-02-16T05:22:20;102194.31;;;11.86;65.64
64388;BME280;50709;52.648;4.764;2023-02-16T05:24:46;102191.91;;;11.97;65.76
64388;BME280;50709;52.648;4.764;2023-02-16T05:27:17;102200.66;;;12.48;65.61
64388;BME280;50709;52.648;4.764;2023-02-16T05:29:43;102206.09;;;12.63;65.21
64388;BME280;50709;52.648;4.764;2023-02-16T05:32:08;102199.59;;;12.93;63.37
64388;BME280;50709;52.648;4.764;2023-02-16T05:34:34;102192.88;;;13.15;63.64
64388;BME280;50709;52.648;4.764;2023-02-16T05:36:59;102181.00;;;13.43;60.65
64388;BME280;50709;52.648;4.764;2023-02-16T05:39:24;102174.50;;;13.90;59.73
64388;BME280;50709;52.648;4.764;2023-02-16T05:41:50;102188.06;;;13.49;61.49
64388;BME280;50709;52.648;4.764;2023-02-16T05:44:15;102196.88;;;13.53;61.42
64388;BME280;50709;52.648;4.764;2023-02-16T05:46:41;102174.69;;;14.10;60.34
64388;BME280;50709;52.648;4.764;2023-02-16T05:49:08;102164.66;;;13.66;59.68
64388;BME280;50709;52.648;4.764;2023-02-16T05:51:34;102170.34;;;14.16;60.15
64388;BME280;50709;52.648;4.764;2023-02-16T05:54:00;102178.19;;;14.12;59.78
64388;BME280;50709;52.648;4.764;2023-02-16T05:56:26;102175.84;;;14.45;59.98
64388;BME280;50709;52.648;4.764;2023-02-16T05:58:52;102174.75;;;14.20;58.67
64388;BME280;50709;52.648;4.764;2023-02-16T06:01:18;102186.44;;;14.56;59.13
64388;BME280;50709;52.648;4.764;2023-02-16T06:03:43;102157.56;;;14.62;58.27
64388;BME280;50709;52.648;4.764;2023-02-16T06:06:09;102179.63;;;14.87;58.26
64388;BME280;50709;52.648;4.764;2023-02-16T06:08:35;102183.16;;;14.86;57.69
64388;BME280;50709;52.648;4.764;2023-02-16T06:11:01;102194.78;;;15.36;57.35
64388;BME280;50709;52.648;4.764;2023-02-16T06:13:27;102197.97;;;14.76;57.27
64388;BME280;50709;52.648;4.764;2023-02-16T06:15:55;102199.13;;;15.25;57.11
64388;BME280;50709;52.648;4.764;2023-02-16T06:18:22;102193.81;;;15.14;56.81
64388;BME280;50709;52.648;4.764;2023-02-16T06:20:47;102182.53;;;15.43;58.89
64388;BME280;50709;52.648;4.764;2023-02-16T06:23:13;102184.88;;;14.81;59.30
64388;BME280;50709;52.648;4.764;2023-02-16T06:25:42;102173.66;;;15.19;56.55
64388;BME280;50709;52.648;4.764;2023-02-16T06:28:08;102185.00;;;15.03;57.01
64388;BME280;50709;52.648;4.764;2023-02-16T06:30:34;102166.41;;;14.70;58.45
64388;BME280;50709;52.648;4.764;2023-02-16T06:33:01;102188.44;;;14.91;60.17
64388;BME280;50709;52.648;4.764;2023-02-16T06:35:27;102188.09;;;14.43;60.13
64388;BME280;50709;52.648;4.764;2023-02-16T06:37:52;102189.03;;;14.50;59.43
64388;BME280;50709;52.648;4.764;2023-02-16T06:40:18;102204.94;;;14.65;60.91
64388;BME280;50709;52.648;4.764;2023-02-16T06:42:43;102186.53;;;14.65;59.84
64388;BME280;50709;52.648;4.764;2023-02-16T06:45:09;102210.09;;;14.59;60.63
64388;BME280;50709;52.648;4.764;2023-02-16T06:47:35;102192.25;;;14.15;60.40
64388;BME280;50709;52.648;4.764;2023-02-16T06:50:04;102203.81;;;14.35;60.16
64388;BME280;50709;52.648;4.764;2023-02-16T06:52:30;102209.69;;;14.06;61.31
64388;BME280;50709;52.648;4.764;2023-02-16T06:54:55;102200.25;;;14.30;61.64
64388;BME280;50709;52.648;4.764;2023-02-16T06:57:21;102210.69;;;14.21;60.79
64388;BME280;50709;52.648;4.764;2023-02-16T06:59:46;102211.00;;;13.66;60.68
64388;BME280;50709;52.648;4.764;2023-02-16T07:02:12;102202.69;;;14.10;61.82
64388;BME280;50709;52.648;4.764;2023-02-16T07:04:37;102208.44;;;13.70;61.03
64388;BME280;50709;52.648;4.764;2023-02-16T07:07:03;102206.47;;;13.51;62.23
64388;BME280;50709;52.648;4.764;2023-02-16T07:09:28;102196.41;;;13.92;62.46
64388;BME280;50709;52.648;4.764;2023-02-16T07:11:54;102222.47;;;14.66;60.97
64388;BME280;50709;52.648;4.764;2023-02-16T07:14:19;102215.34;;;14.53;60.97
64388;BME280;50709;52.648;4.764;2023-02-16T07:16:45;102215.91;;;14.18;61.00
64388;BME280;50709;52.648;4.764;2023-02-16T07:19:10;102217.78;;;14.28;61.27
64388;BME280;50709;52.648;4.764;2023-02-16T07:21:36;102201.31;;;14.52;60.98
64388;BME280;50709;52.648;4.764;2023-02-16T07:24:02;102215.91;;;14.15;60.51
64388;BME280;50709;52.648;4.764;2023-02-16T07:26:27;102230.94;;;14.34;61.18
64388;BME280;50709;52.648;4.764;2023-02-16T07:28:53;102223.59;;;13.96;62.13
64388;BME280;50709;52.648;4.764;2023-02-16T07:31:18;102223.13;;;14.43;61.27
64388;BME280;50709;52.648;4.764;2023-02-16T07:33:44;102237.78;;;14.13;60.92
64388;BME280;50709;52.648;4.764;2023-02-16T07:36:10;102231.16;;;13.67;62.14
64388;BME280;50709;52.648;4.764;2023-02-16T07:38:37;102225.25;;;13.86;62.09
64388;BME280;50709;52.648;4.764;2023-02-16T07:41:03;102228.19;;;14.20;62.41
64388;BME280;50709;52.648;4.764;2023-02-16T07:43:28;102228.41;;;13.56;61.84
64388;BME280;50709;52.648;4.764;2023-02-16T07:45:54;102237.19;;;14.45;60.96
64388;BME280;50709;52.648;4.764;2023-02-16T07:48:19;102198.09;;;13.86;61.74
64388;BME280;50709;52.648;4.764;2023-02-16T07:50:45;102242.78;;;13.89;62.04
64388;BME280;50709;52.648;4.764;2023-02-16T07:53:10;102235.28;;;13.46;63.47
64388;BME280;50709;52.648;4.764;2023-02-16T07:55:39;102231.97;;;13.61;63.54
64388;BME280;50709;52.648;4.764;2023-02-16T07:58:05;102215.94;;;13.36;62.88
64388;BME280;50709;52.648;4.764;2023-02-16T08:00:31;102250.75;;;13.29;63.91
64388;BME280;50709;52.648;4.764;2023-02-16T08:02:56;102252.94;;;13.58;63.70
64388;BME280;50709;52.648;4.764;2023-02-16T08:05:22;102247.34;;;13.35;63.73
64388;BME280;50709;52.648;4.764;2023-02-16T08:07:47;102259.97;;;13.62;64.05
64388;BME280;50709;52.648;4.764;2023-02-16T08:10:13;102231.88;;;13.56;62.34
64388;BME280;50709;52.648;4.764;2023-02-16T08:12:39;102264.81;;;13.31;63.89
64388;BME280;50709;52.648;4.764;2023-02-16T08:15:05;102249.94;;;13.33;63.71
64388;BME280;50709;52.648;4.764;2023-02-16T08:17:30;102248.97;;;13.95;63.02
64388;BME280;50709;52.648;4.764;2023-02-16T08:19:56;102259.56;;;14.05;63.20
64388;BME280;50709;52.648;4.764;2023-02-16T08:22:21;102238.97;;;13.62;63.59
64388;BME280;50709;52.648;4.764;2023-02-16T08:24:47;102237.44;;;13.79;63.08
64388;BME280;50709;52.648;4.764;2023-02-16T08:27:12;102251.22;;;13.63;63.86
64388;BME280;50709;52.648;4.764;2023-02-16T08:29:37;102262.13;;;13.95;63.16
64388;BME280;50709;52.648;4.764;2023-02-16T08:32:03;102237.31;;;13.70;63.25
64388;BME280;50709;52.648;4.764;2023-02-16T08:34:33;102225.91;;;13.70;63.13
64388;BME280;50709;52.648;4.764;2023-02-16T08:36:59;102234.66;;;13.67;64.35
64388;BME280;50709;52.648;4.764;2023-02-16T08:39:26;102245.34;;;13.86;63.63
64388;BME280;50709;52.648;4.764;2023-02-16T08:41:53;102246.72;;;13.51;64.08
64388;BME280;50709;52.648;4.764;2023-02-16T08:44:20;102236.53;;;13.79;64.53
64388;BME280;50709;52.648;4.764;2023-02-16T08:46:49;102234.78;;;13.78;64.79
64388;BME280;50709;52.648;4.764;2023-02-16T08:49:16;102237.09;;;13.53;64.72
64388;BME280;50709;52.648;4.764;2023-02-16T08:51:47;102238.41;;;13.19;64.76
64388;BME280;50709;52.648;4.764;2023-02-16T08:54:16;102209.31;;;13.69;63.96
64388;BME280;50709;52.648;4.764;2023-02-16T08:56:43;102231.97;;;13.61;63.55
64388;BME280;50709;52.648;4.764;2023-02-16T08:59:11;102237.41;;;13.78;64.47
64388;BME280;50709;52.648;4.764;2023-02-16T09:01:37;102244.63;;;13.98;63.76
64388;BME280;50709;52.648;4.764;2023-02-16T09:04:03;102247.75;;;14.53;62.39
64388;BME280;50709;52.648;4.764;2023-02-16T09:06:29;102235.47;;;13.63;64.50
64388;BME280;50709;52.648;4.764;2023-02-16T09:08:55;102238.53;;;14.05;64.37
64388;BME280;50709;52.648;4.764;2023-02-16T09:11:22;102240.34;;;14.09;63.27
64388;BME280;50709;52.648;4.764;2023-02-16T09:13:49;102217.25;;;13.75;64.08
64388;BME280;50709;52.648;4.764;2023-02-16T09:16:19;102203.28;;;13.79;64.14
64388;BME280;50709;52.648;4.764;2023-02-16T09:18:47;102226.16;;;13.91;64.37
64388;BME280;50709;52.648;4.764;2023-02-16T09:21:16;102217.47;;;13.97;63.61
64388;BME280;50709;52.648;4.764;2023-02-16T09:23:44;102221.44;;;13.58;65.21
64388;BME280;50709;52.648;4.764;2023-02-16T09:26:14;102227.69;;;13.72;64.79
64388;BME280;50709;52.648;4.764;2023-02-16T09:28:40;102232.81;;;13.58;64.68
64388;BME280;50709;52.648;4.764;2023-02-16T09:31:14;102242.84;;;13.95;64.64
64388;BME280;50709;52.648;4.764;2023-02-16T09:33:42;102208.94;;;13.38;63.65
64388;BME280;50709;52.648;4.764;2023-02-16T09:36:09;102201.38;;;13.65;64.27
64388;BME280;50709;52.648;4.764;2023-02-16T09:38:37;102236.41;;;13.70;64.47
64388;BME280;50709;52.648;4.764;2023-02-16T09:41:24;102253.88;;;13.65;64.37
64388;BME280;50709;52.648;4.764;2023-02-16T09:46:59;102235.53;;;13.66;65.69
64388;BME280;50709;52.648;4.764;2023-02-16T09:49:31;102217.41;;;13.19;66.11
64388;BME280;50709;52.648;4.764;2023-02-16T10:05:17;102261.06;;;13.78;65.15
64388;BME280;50709;52.648;4.764;2023-02-16T10:08:04;102268.63;;;13.55;65.80
64388;BME280;50709;52.648;4.764;2023-02-16T10:10:55;102265.09;;;13.50;65.06
64388;BME280;50709;52.648;4.764;2023-02-16T10:16:00;102269.56;;;13.61;65.18
64388;BME280;50709;52.648;4.764;2023-02-16T10:18:39;102272.44;;;13.82;64.65
64388;BME280;50709;52.648;4.764;2023-02-16T10:21:12;102274.91;;;13.68;64.85
64388;BME280;50709;52.648;4.764;2023-02-16T10:23:41;102278.44;;;13.05;66.24
64388;BME280;50709;52.648;4.764;2023-02-16T10:26:16;102255.34;;;13.41;66.15
64388;BME280;50709;52.648;4.764;2023-02-16T10:31:19;102251.75;;;13.36;67.03
64388;BME280;50709;52.648;4.764;2023-02-16T10:34:19;102256.16;;;13.37;66.42
64388;BME280;50709;52.648;4.764;2023-02-16T10:44:35;102250.44;;;13.04;66.95
64388;BME280;50709;52.648;4.764;2023-02-16T10:47:03;102254.22;;;13.25;66.58
64388;BME280;50709;52.648;4.764;2023-02-16T10:49:31;102238.63;;;13.36;66.20
64388;BME280;50709;52.648;4.764;2023-02-16T10:52:01;102254.59;;;13.50;66.02
64388;BME280;50709;52.648;4.764;2023-02-16T10:54:30;102228.75;;;13.16;66.12
64388;BME280;50709;52.648;4.764;2023-02-16T10:57:04;102257.78;;;13.30;65.86
64388;BME280;50709;52.648;4.764;2023-02-16T10:59:42;102242.25;;;13.44;66.10
64388;BME280;50709;52.648;4.764;2023-02-16T11:02:27;102254.19;;;13.22;66.82
64388;BME280;50709;52.648;4.764;2023-02-16T11:04:57;102236.09;;;13.42;65.84
64388;BME280;50709;52.648;4.764;2023-02-16T11:07:25;102238.72;;;13.40;66.59
64388;BME280;50709;52.648;4.764;2023-02-16T11:09:56;102226.72;;;13.62;65.59
64388;BME280;50709;52.648;4.764;2023-02-16T11:12:38;102223.22;;;13.60;64.83
64388;BME280;50709;52.648;4.764;2023-02-16T11:17:56;102210.03;;;13.59;65.81
64388;BME280;50709;52.648;4.764;2023-02-16T11:20:50;102200.25;;;13.44;65.83
64388;BME280;50709;52.648;4.764;2023-02-16T11:23:26;102211.53;;;13.37;65.21
64388;BME280;50709;52.648;4.764;2023-02-16T11:28:39;102196.75;;;13.43;65.48
64388;BME280;50709;52.648;4.764;2023-02-16T11:33:35;102180.34;;;13.63;65.53
64388;BME280;50709;52.648;4.764;2023-02-16T11:36:03;102205.09;;;13.84;64.85
64388;BME280;50709;52.648;4.764;2023-02-16T11:38:58;102201.53;;;13.82;65.20
64388;BME280;50709;52.648;4.764;2023-02-16T11:41:24;102197.00;;;13.65;64.61
64388;BME280;50709;52.648;4.764;2023-02-16T11:43:50;102200.78;;;13.90;64.67
64388;BME280;50709;52.648;4.764;2023-02-16T11:46:19;102160.28;;;13.70;64.61
64388;BME280;50709;52.648;4.764;2023-02-16T11:48:46;102182.97;;;13.63;64.53
64388;BME280;50709;52.648;4.764;2023-02-16T11:51:13;102182.16;;;13.67;64.43
64388;BME280;50709;52.648;4.764;2023-02-16T11:53:41;102174.34;;;13.76;64.74
64388;BME280;50709;52.648;4.764;2023-02-16T11:58:35;102175.38;;;13.89;63.83
64388;BME280;50709;52.648;4.764;2023-02-16T12:01:21;102163.72;;;13.64;64.74
64388;BME280;50709;52.648;4.764;2023-02-16T12:06:47;102162.03;;;13.69;66.03
64388;BME280;50709;52.648;4.764;2023-02-16T12:09:40;102154.25;;;13.77;65.72
64388;BME280;50709;52.648;4.764;2023-02-16T12:12:17;102155.63;;;13.41;66.47
64388;BME280;50709;52.648;4.764;2023-02-16T12:20:05;102144.59;;;13.74;64.62
64388;BME280;50709;52.648;4.764;2023-02-16T12:30:28;102144.59;;;13.76;64.05
64388;BME280;50709;52.648;4.764;2023-02-16T12:44:30;102130.66;;;13.82;61.37
64388;BME280;50709;52.648;4.764;2023-02-16T12:47:01;102123.25;;;13.39;60.43
64388;BME280;50709;52.648;4.764;2023-02-16T12:49:44;102111.59;;;14.03;60.58
64388;BME280;50709;52.648;4.764;2023-02-16T12:52:29;102105.41;;;13.99;59.44
64388;BME280;50709;52.648;4.764;2023-02-16T12:55:06;102111.66;;;14.13;60.02
64388;BME280;50709;52.648;4.764;2023-02-16T12:57:33;102094.81;;;13.88;60.01
64388;BME280;50709;52.648;4.764;2023-02-16T13:02:43;102088.66;;;13.85;58.98
64388;BME280;50709;52.648;4.764;2023-02-16T13:05:17;102069.47;;;13.92;59.30
64388;BME280;50709;52.648;4.764;2023-02-16T13:07:46;102079.09;;;13.91;58.92
64388;BME280;50709;52.648;4.764;2023-02-16T13:12:42;102060.84;;;14.07;59.84
64388;BME280;50709;52.648;4.764;2023-02-16T13:15:13;102080.09;;;14.09;60.50
64388;BME280;50709;52.648;4.764;2023-02-16T13:20:13;102078.22;;;13.94;61.44
64388;BME280;50709;52.648;4.764;2023-02-16T13:28:18;102048.63;;;14.20;61.01
64388;BME280;50709;52.648;4.764;2023-02-16T13:31:51;102038.72;;;13.78;61.17
64388;BME280;50709;52.648;4.764;2023-02-16T13:45:17;102057.84;;;13.60;63.22
64388;BME280;50709;52.648;4.764;2023-02-16T13:47:44;102045.59;;;13.59;64.30
64388;BME280;50709;52.648;4.764;2023-02-16T13:52:52;102013.53;;;14.05;63.00
64388;BME280;50709;52.648;4.764;2023-02-16T13:55:33;102003.50;;;13.53;64.31
64388;BME280;50709;52.648;4.764;2023-02-16T14:05:52;102010.06;;;14.08;63.65
64388;BME280;50709;52.648;4.764;2023-02-16T14:08:28;101997.41;;;13.54;65.13
64388;BME280;50709;52.648;4.764;2023-02-16T14:11:03;102031.66;;;13.70;65.82
64388;BME280;50709;52.648;4.764;2023-02-16T14:16:25;102023.44;;;13.34;67.46
64388;BME280;50709;52.648;4.764;2023-02-16T14:19:17;101997.78;;;13.04;68.41
64388;BME280;50709;52.648;4.764;2023-02-16T14:21:46;102030.50;;;13.38;67.51
64388;BME280;50709;52.648;4.764;2023-02-16T14:24:30;101997.94;;;13.19;67.59
64388;BME280;50709;52.648;4.764;2023-02-16T14:29:35;102020.25;;;13.66;66.55
64388;BME280;50709;52.648;4.764;2023-02-16T14:32:29;102017.81;;;13.91;65.85
64388;BME280;50709;52.648;4.764;2023-02-16T14:35:15;102027.47;;;13.92;65.78
64388;BME280;50709;52.648;4.764;2023-02-16T14:38:36;102022.88;;;13.66;66.85
64388;BME280;50709;52.648;4.764;2023-02-16T14:40:53;102021.97;;;13.59;66.74
64388;BME280;50709;52.648;4.764;2023-02-16T14:43:39;102023.41;;;13.29;68.06
64388;BME280;50709;52.648;4.764;2023-02-16T14:54:39;102017.03;;;13.04;68.92
64388;BME280;50709;52.648;4.764;2023-02-16T14:57:15;102021.19;;;12.85;68.75
64388;BME280;50709;52.648;4.764;2023-02-16T14:59:53;102005.13;;;12.57;69.81
64388;BME280;50709;52.648;4.764;2023-02-16T15:02:28;102015.72;;;12.67;71.15
64388;BME280;50709;52.648;4.764;2023-02-16T15:04:55;102013.56;;;13.08;69.19
64388;BME280;50709;52.648;4.764;2023-02-16T15:07:22;101976.84;;;13.08;68.38
64388;BME280;50709;52.648;4.764;2023-02-16T15:09:54;102011.16;;;13.30;68.00
64388;BME280;50709;52.648;4.764;2023-02-16T15:12:24;102011.06;;;13.19;68.88
64388;BME280;50709;52.648;4.764;2023-02-16T15:14:54;101992.47;;;12.98;69.24
64388;BME280;50709;52.648;4.764;2023-02-16T15:17:39;102008.28;;;13.05;69.42
64388;BME280;50709;52.648;4.764;2023-02-16T15:20:30;102021.47;;;13.11;69.68
64388;BME280;50709;52.648;4.764;2023-02-16T15:23:00;102006.41;;;12.92;70.10
64388;BME280;50709;52.648;4.764;2023-02-16T15:25:30;102007.06;;;12.74;70.27
64388;BME280;50709;52.648;4.764;2023-02-16T15:28:22;102001.88;;;12.78;70.44
64388;BME280;50709;52.648;4.764;2023-02-16T15:31:00;102012.59;;;12.99;69.52
64388;BME280;50709;52.648;4.764;2023-02-16T15:33:54;101998.31;;;12.73;70.86
64388;BME280;50709;52.648;4.764;2023-02-16T15:36:31;102004.41;;;12.72;71.15